createdAt,value
2023-05-05T00:00:02.290Z,6.68
2023-05-05T00:02:29.193Z,6.85
2023-05-05T00:04:56.229Z,6.53
2023-05-05T00:07:23.054Z,7.05
2023-05-05T00:09:49.948Z,5.70
2023-05-05T00:12:16.945Z,5.22
2023-05-05T00:14:43.794Z,5.37
2023-05-05T00:17:10.808Z,7.22
2023-05-05T00:19:37.788Z,6.47
2023-05-05T00:22:04.670Z,4.93
2023-05-05T00:24:31.456Z,6.87
2023-05-05T00:26:58.297Z,5.80
2023-05-05T00:29:25.341Z,6.70
2023-05-05T00:31:53.022Z,6.93
2023-05-05T00:34:19.936Z,7.03
2023-05-05T00:36:46.867Z,6.45
2023-05-05T00:39:14.484Z,7.60
2023-05-05T00:41:41.625Z,7.35
2023-05-05T00:44:08.463Z,6.07
2023-05-05T00:46:36.139Z,6.43
2023-05-05T00:49:03.271Z,5.45
2023-05-05T00:51:30.302Z,7.35
2023-05-05T00:53:57.566Z,6.57
2023-05-05T00:56:27.513Z,6.53
2023-05-05T00:58:54.489Z,5.30
2023-05-05T01:01:21.358Z,5.07
2023-05-05T01:03:48.366Z,6.03
2023-05-05T01:06:39.731Z,6.80
2023-05-05T01:10:10.971Z,5.65
2023-05-05T01:13:05.781Z,5.65
2023-05-05T01:15:36.326Z,4.95
2023-05-05T01:18:21.455Z,5.35
2023-05-05T01:21:00.710Z,7.47
2023-05-05T01:23:59.216Z,6.25
2023-05-05T01:26:48.228Z,4.50
2023-05-05T01:29:40.740Z,7.57
2023-05-05T01:32:11.990Z,4.47
2023-05-05T01:35:15.525Z,6.10
2023-05-05T01:37:55.814Z,9.00
2023-05-05T01:40:26.999Z,5.93
2023-05-05T01:42:56.452Z,6.82
2023-05-05T01:45:28.911Z,6.47
2023-05-05T01:47:57.631Z,5.37
2023-05-05T01:50:26.128Z,5.78
2023-05-05T01:52:54.597Z,4.53
2023-05-05T01:55:25.673Z,7.82
2023-05-05T01:57:55.058Z,5.90
2023-05-05T02:00:23.094Z,5.18
2023-05-05T02:02:50.836Z,6.70
2023-05-05T02:05:22.075Z,9.02
2023-05-05T02:07:51.485Z,9.23
2023-05-05T02:10:18.650Z,7.87
2023-05-05T02:12:47.789Z,6.78
2023-05-05T02:15:15.756Z,8.52
2023-05-05T02:17:46.759Z,14.38
2023-05-05T02:20:16.319Z,6.03
2023-05-05T02:22:43.445Z,4.80
2023-05-05T02:25:10.601Z,6.62
2023-05-05T02:27:41.874Z,14.10
2023-05-05T02:30:11.346Z,8.95
2023-05-05T02:32:41.632Z,12.25
2023-05-05T02:35:15.846Z,14.13
2023-05-05T02:37:51.122Z,8.70
2023-05-05T02:40:24.715Z,7.65
2023-05-05T02:42:54.638Z,8.77
2023-05-05T02:45:24.232Z,6.03
2023-05-05T02:47:51.084Z,8.93
2023-05-05T02:50:18.263Z,7.82
2023-05-05T02:52:46.069Z,7.15
2023-05-05T02:55:13.675Z,7.93
2023-05-05T02:57:55.399Z,7.25
2023-05-05T03:00:22.241Z,10.98
2023-05-05T03:03:05.723Z,9.75
2023-05-05T03:05:42.824Z,11.05
2023-05-05T03:08:33.418Z,7.57
2023-05-05T03:11:16.948Z,8.93
2023-05-05T03:13:44.996Z,8.90
2023-05-05T03:16:13.379Z,12.77
2023-05-05T03:18:42.565Z,14.82
2023-05-05T03:21:09.755Z,8.32
2023-05-05T03:23:36.855Z,11.77
2023-05-05T03:26:03.842Z,11.02
2023-05-05T03:28:30.766Z,7.57
2023-05-05T03:30:57.751Z,8.10
2023-05-05T03:33:24.598Z,5.07
2023-05-05T03:35:51.487Z,7.50
2023-05-05T03:38:18.298Z,8.52
2023-05-05T03:40:45.179Z,5.45
2023-05-05T03:43:12.396Z,7.40
2023-05-05T03:45:39.324Z,7.70
2023-05-05T03:48:07.055Z,6.00
2023-05-05T03:50:34.045Z,6.18
2023-05-05T03:53:01.085Z,8.73
2023-05-05T03:55:28.079Z,9.50
2023-05-05T03:57:56.556Z,10.43
2023-05-05T04:00:23.602Z,11.82
2023-05-05T04:02:50.612Z,9.43
2023-05-05T04:05:18.449Z,9.38
2023-05-05T04:07:45.273Z,9.65
2023-05-05T04:10:12.459Z,7.32
2023-05-05T04:12:39.430Z,6.55
2023-05-05T04:15:07.090Z,7.43
2023-05-05T04:17:33.988Z,7.45
2023-05-05T04:20:00.953Z,15.27
2023-05-05T04:22:27.758Z,8.05
2023-05-05T04:24:54.748Z,9.77
2023-05-05T04:27:21.566Z,9.80
2023-05-05T04:29:48.469Z,6.68
2023-05-05T04:32:15.998Z,13.07
2023-05-05T04:34:44.096Z,8.43
2023-05-05T04:37:15.562Z,10.40
2023-05-05T04:39:47.073Z,9.23
2023-05-05T04:42:14.011Z,9.52
2023-05-05T04:44:41.021Z,11.55
2023-05-05T04:47:07.933Z,8.55
2023-05-05T04:49:34.894Z,8.07
2023-05-05T04:52:01.787Z,6.03
2023-05-05T04:54:28.685Z,8.50
2023-05-05T04:56:55.894Z,13.35
2023-05-05T04:59:22.740Z,12.27
2023-05-05T05:01:49.586Z,12.37
2023-05-05T05:04:18.810Z,11.48
2023-05-05T05:06:46.215Z,13.32
2023-05-05T05:09:13.302Z,21.98
2023-05-05T05:11:40.124Z,26.37
2023-05-05T05:14:07.064Z,96.53
2023-05-05T05:16:33.971Z,153.05
2023-05-05T05:19:01.752Z,36.40
2023-05-05T05:21:28.903Z,11.10
2023-05-05T05:23:55.791Z,11.93
2023-05-05T05:26:23.394Z,11.05
2023-05-05T05:28:50.220Z,13.07
2023-05-05T05:31:17.100Z,9.73
2023-05-05T05:33:44.065Z,9.85
2023-05-05T05:36:11.156Z,11.43
2023-05-05T05:38:37.942Z,9.13
2023-05-05T05:41:07.902Z,11.18
2023-05-05T05:43:37.084Z,18.67
2023-05-05T05:46:04.480Z,12.02
2023-05-05T05:48:32.335Z,14.57
2023-05-05T05:50:59.158Z,10.30
2023-05-05T05:53:26.070Z,12.52
2023-05-05T05:55:52.968Z,12.00
2023-05-05T05:58:20.102Z,8.27
2023-05-05T06:00:48.503Z,9.80
2023-05-05T06:03:16.180Z,7.82
2023-05-05T06:05:43.114Z,7.82
2023-05-05T06:08:11.087Z,8.00
2023-05-05T06:10:37.946Z,7.32
2023-05-05T06:13:04.796Z,9.07
2023-05-05T06:15:31.731Z,7.97
2023-05-05T06:17:58.545Z,7.75
2023-05-05T06:20:25.468Z,9.10
2023-05-05T06:22:52.333Z,7.90
2023-05-05T06:25:19.187Z,9.27
2023-05-05T06:27:47.274Z,6.97
2023-05-05T06:30:15.013Z,6.65
2023-05-05T06:32:42.079Z,11.55
2023-05-05T06:35:09.822Z,8.18
2023-05-05T06:37:36.736Z,8.30
2023-05-05T06:40:03.858Z,7.55
2023-05-05T06:42:33.062Z,7.43
2023-05-05T06:44:59.936Z,9.32
2023-05-05T06:47:26.813Z,7.57
2023-05-05T06:49:53.971Z,7.82
2023-05-05T06:52:20.882Z,9.52
2023-05-05T06:54:47.680Z,9.20
2023-05-05T06:57:14.763Z,12.65
2023-05-05T06:59:41.846Z,7.60
2023-05-05T07:02:08.671Z,7.65
2023-05-05T07:04:35.817Z,6.55
2023-05-05T07:07:02.720Z,7.10
2023-05-05T07:09:29.617Z,5.85
2023-05-05T07:11:56.500Z,10.13
2023-05-05T07:14:24.469Z,6.37
2023-05-05T07:16:51.643Z,7.62
2023-05-05T07:19:18.562Z,8.38
2023-05-05T07:21:45.433Z,8.20
2023-05-05T07:24:12.304Z,6.25
2023-05-05T07:26:39.168Z,6.93
2023-05-05T07:29:07.305Z,6.78
2023-05-05T07:31:34.332Z,7.43
2023-05-05T07:34:01.461Z,6.90
2023-05-05T07:36:28.587Z,7.12
2023-05-05T07:38:55.629Z,7.97
2023-05-05T07:41:22.541Z,7.87
2023-05-05T07:43:49.454Z,10.88
2023-05-05T07:46:17.695Z,7.25
2023-05-05T07:48:44.624Z,5.65
2023-05-05T07:51:11.470Z,6.35
2023-05-05T07:53:38.331Z,8.57
2023-05-05T07:56:05.253Z,8.00
2023-05-05T07:58:32.134Z,10.23
2023-05-05T08:00:59.622Z,6.30
2023-05-05T08:03:26.785Z,10.07
2023-05-05T08:05:55.666Z,6.53
2023-05-05T08:08:27.112Z,6.87
2023-05-05T08:10:54.814Z,5.47
2023-05-05T08:13:21.868Z,7.62
2023-05-05T08:15:48.776Z,7.32
2023-05-05T08:18:15.592Z,9.05
2023-05-05T08:20:42.592Z,5.32
2023-05-05T08:23:09.517Z,8.30
2023-05-05T08:25:36.519Z,6.68
2023-05-05T08:28:03.824Z,8.32
2023-05-05T08:30:30.912Z,6.32
2023-05-05T08:32:58.062Z,6.60
2023-05-05T08:35:24.962Z,5.65
2023-05-05T08:37:52.093Z,6.37
2023-05-05T08:40:21.371Z,7.75
2023-05-05T08:42:48.618Z,4.87
2023-05-05T08:45:16.202Z,5.43
2023-05-05T08:47:43.678Z,9.57
2023-05-05T08:50:11.709Z,5.75
2023-05-05T08:52:45.972Z,5.18
2023-05-05T08:55:26.779Z,3.85
2023-05-05T08:57:57.531Z,9.35
2023-05-05T09:00:27.312Z,7.60
2023-05-05T09:02:57.827Z,5.50
2023-05-05T09:05:25.883Z,7.68
2023-05-05T09:07:52.958Z,7.05
2023-05-05T09:10:19.951Z,5.87
2023-05-05T09:12:47.035Z,5.15
2023-05-05T09:15:15.391Z,5.53
2023-05-05T09:17:42.868Z,5.90
2023-05-05T09:20:11.993Z,6.43
2023-05-05T09:22:40.744Z,3.58
2023-05-05T09:25:10.404Z,3.67
2023-05-05T09:27:48.859Z,4.00
2023-05-05T09:30:18.118Z,5.07
2023-05-05T09:35:17.206Z,4.05
2023-05-05T09:37:44.737Z,5.78
2023-05-05T09:40:14.263Z,5.22
2023-05-05T09:42:41.760Z,7.28
2023-05-05T09:45:18.091Z,7.82
2023-05-05T09:47:49.456Z,7.20
2023-05-05T09:50:19.163Z,8.10
2023-05-05T09:53:00.883Z,5.68
2023-05-05T09:55:28.387Z,7.68
2023-05-05T09:57:56.453Z,6.32
2023-05-05T10:00:39.073Z,5.22
2023-05-05T10:03:06.053Z,11.25
2023-05-05T10:05:32.979Z,6.93
2023-05-05T10:08:13.461Z,8.98
2023-05-05T10:10:51.684Z,8.02
2023-05-05T10:13:21.203Z,5.12
2023-05-05T10:15:52.260Z,5.12
2023-05-05T10:18:27.856Z,4.22
2023-05-05T10:21:03.386Z,3.92
2023-05-05T10:23:46.132Z,5.22
2023-05-05T10:26:15.084Z,7.07
2023-05-05T10:28:55.278Z,6.90
2023-05-05T10:31:30.328Z,6.72
2023-05-05T10:34:10.822Z,7.28
2023-05-05T10:36:39.507Z,6.43
2023-05-05T10:39:11.000Z,3.17
2023-05-05T10:41:38.499Z,7.93
2023-05-05T10:44:07.003Z,3.90
2023-05-05T10:46:33.964Z,7.30
2023-05-05T10:49:33.716Z,6.20
2023-05-05T10:52:19.462Z,9.43
2023-05-05T10:54:55.904Z,9.07
2023-05-05T10:57:25.972Z,9.85
2023-05-05T10:59:52.888Z,7.72
2023-05-05T11:02:29.708Z,6.35
2023-05-05T11:05:08.471Z,6.22
2023-05-05T11:07:36.177Z,7.35
2023-05-05T11:10:07.858Z,5.68
2023-05-05T11:13:02.234Z,5.45
2023-05-05T11:15:31.469Z,9.18
2023-05-05T11:18:05.808Z,4.50
2023-05-05T11:20:37.323Z,7.43
2023-05-05T11:23:04.364Z,7.55
2023-05-05T11:25:41.273Z,6.28
2023-05-05T11:28:13.065Z,10.32
2023-05-05T11:30:55.135Z,5.22
2023-05-05T11:33:32.322Z,8.77
2023-05-05T11:36:05.764Z,6.93
2023-05-05T11:38:36.457Z,7.07
2023-05-05T11:41:12.055Z,5.93
2023-05-05T11:43:41.969Z,3.95
2023-05-05T11:46:17.114Z,4.30
2023-05-05T11:48:47.301Z,4.35
2023-05-05T11:51:18.706Z,6.25
2023-05-05T11:53:49.978Z,2.83
2023-05-05T11:56:19.453Z,4.97
2023-05-05T11:58:47.450Z,7.50
2023-05-05T12:01:14.932Z,4.12
2023-05-05T12:03:43.213Z,4.90
2023-05-05T12:06:10.490Z,4.00
2023-05-05T12:08:41.396Z,4.35
2023-05-05T12:11:11.444Z,3.87
2023-05-05T12:13:38.495Z,3.50
2023-05-05T12:16:09.833Z,3.75
2023-05-05T12:18:36.853Z,3.65
2023-05-05T12:21:15.840Z,4.97
2023-05-05T12:23:43.070Z,3.95
2023-05-05T12:26:30.243Z,2.95
2023-05-05T12:29:01.214Z,2.87
2023-05-05T12:31:38.984Z,7.03
2023-05-05T12:34:08.706Z,6.18
2023-05-05T12:36:39.983Z,5.05
2023-05-05T12:39:06.896Z,4.45
2023-05-05T12:41:34.075Z,4.28
2023-05-05T12:44:03.265Z,5.20
2023-05-05T12:46:31.302Z,4.55
2023-05-05T12:49:08.134Z,8.48
2023-05-05T12:51:36.411Z,5.72
2023-05-05T12:54:10.442Z,7.97
2023-05-05T12:56:44.831Z,5.45
2023-05-05T12:59:29.036Z,4.62
2023-05-05T13:01:57.720Z,3.42
2023-05-05T13:04:28.371Z,2.97
2023-05-05T13:07:14.641Z,5.93
2023-05-05T13:09:41.916Z,6.43
2023-05-05T13:12:11.729Z,3.62
2023-05-05T13:14:39.936Z,4.18
2023-05-05T13:17:06.978Z,6.90
2023-05-05T13:19:36.065Z,7.45
2023-05-05T13:22:03.408Z,7.57
2023-05-05T13:24:46.680Z,3.67
2023-05-05T13:27:17.422Z,2.70
2023-05-05T13:29:45.338Z,3.97
2023-05-05T13:32:12.226Z,9.52
2023-05-05T13:34:39.581Z,6.87
2023-05-05T13:37:06.727Z,5.45
2023-05-05T13:39:33.649Z,3.53
2023-05-05T13:42:00.684Z,3.67
2023-05-05T13:44:27.643Z,4.22
2023-05-05T13:46:54.757Z,4.80
2023-05-05T13:49:21.902Z,3.75
2023-05-05T13:51:48.824Z,2.25
2023-05-05T13:54:15.703Z,4.47
2023-05-05T13:56:42.744Z,6.43
2023-05-05T13:59:09.740Z,6.90
2023-05-05T14:01:36.696Z,6.57
2023-05-05T14:04:05.466Z,3.60
2023-05-05T14:08:59.897Z,4.47
2023-05-05T14:11:26.723Z,4.87
2023-05-05T14:13:53.613Z,3.05
2023-05-05T14:16:20.499Z,5.28
2023-05-05T14:18:47.360Z,3.75
2023-05-05T14:21:14.251Z,3.83
2023-05-05T14:23:41.258Z,4.28
2023-05-05T14:26:09.258Z,4.32
2023-05-05T14:28:36.402Z,3.87
2023-05-05T14:31:03.359Z,4.50
2023-05-05T14:33:30.282Z,4.90
2023-05-05T14:35:57.191Z,7.70
2023-05-05T14:38:24.059Z,2.90
2023-05-05T14:40:50.960Z,5.78
2023-05-05T14:43:17.791Z,5.55
2023-05-05T14:45:44.636Z,4.15
2023-05-05T14:48:11.568Z,4.03
2023-05-05T14:50:40.059Z,6.32
2023-05-05T14:53:06.857Z,3.67
2023-05-05T14:55:33.737Z,4.55
2023-05-05T14:58:00.570Z,2.80
2023-05-05T15:00:27.442Z,3.90
2023-05-05T15:02:54.304Z,4.53
2023-05-05T15:05:21.480Z,6.45
2023-05-05T15:07:48.418Z,5.93
2023-05-05T15:10:15.355Z,4.10
2023-05-05T15:12:43.048Z,4.82
2023-05-05T15:15:10.530Z,4.97
2023-05-05T15:17:39.067Z,5.12
2023-05-05T15:20:07.001Z,5.18
2023-05-05T15:22:34.075Z,4.03
2023-05-05T15:25:01.550Z,4.18
2023-05-05T15:27:28.666Z,3.95
2023-05-05T15:29:55.620Z,4.95
2023-05-05T15:32:22.822Z,5.50
2023-05-05T15:34:50.474Z,5.20
2023-05-05T15:37:17.583Z,4.68
2023-05-05T15:39:44.616Z,6.60
2023-05-05T15:42:11.540Z,5.20
2023-05-05T15:44:38.636Z,3.65
2023-05-05T15:47:06.763Z,6.12
2023-05-05T15:49:33.695Z,6.65
2023-05-05T15:52:00.913Z,3.37
2023-05-05T15:54:27.813Z,3.00
2023-05-05T15:56:55.181Z,3.35
2023-05-05T15:59:22.127Z,3.42
2023-05-05T16:01:49.292Z,3.95
2023-05-05T16:04:16.181Z,5.20
2023-05-05T16:06:43.165Z,4.00
2023-05-05T16:09:10.351Z,6.65
2023-05-05T16:11:39.849Z,5.72
2023-05-05T16:16:33.472Z,4.20
2023-05-05T16:19:00.332Z,4.50
2023-05-05T16:21:27.722Z,3.85
2023-05-05T16:23:54.594Z,3.17
2023-05-05T16:26:21.468Z,5.82
2023-05-05T16:28:48.778Z,6.25
2023-05-05T16:31:15.641Z,4.93
2023-05-05T16:33:44.143Z,3.92
2023-05-05T16:36:14.669Z,3.75
2023-05-05T16:38:41.700Z,6.53
2023-05-05T16:41:08.678Z,4.45
2023-05-05T16:43:37.392Z,3.95
2023-05-05T16:46:04.906Z,3.97
2023-05-05T16:48:31.973Z,4.15
2023-05-05T16:50:59.032Z,3.35
2023-05-05T16:53:26.175Z,5.32
2023-05-05T16:55:53.761Z,5.18
2023-05-05T16:58:21.455Z,4.10
2023-05-05T17:00:49.387Z,3.45
2023-05-05T17:03:17.298Z,4.80
2023-05-05T17:05:45.285Z,4.03
2023-05-05T17:08:14.481Z,4.25
2023-05-05T17:10:42.406Z,4.37
2023-05-05T17:13:13.711Z,5.32
2023-05-05T17:15:41.607Z,5.00
2023-05-05T17:18:09.019Z,5.10
2023-05-05T17:20:36.552Z,4.85
2023-05-05T17:23:03.600Z,3.72
2023-05-05T17:25:30.937Z,4.53
2023-05-05T17:27:57.902Z,4.22
2023-05-05T17:30:24.768Z,6.50
2023-05-05T17:32:51.632Z,4.72
2023-05-05T17:35:18.733Z,9.07
2023-05-05T17:37:45.788Z,7.72
2023-05-05T17:40:12.773Z,6.82
2023-05-05T17:42:39.720Z,7.10
2023-05-05T17:45:07.933Z,5.35
2023-05-05T17:47:35.263Z,7.72
2023-05-05T17:50:02.328Z,11.48
2023-05-05T17:52:29.369Z,4.05
2023-05-05T17:54:56.170Z,4.75
2023-05-05T17:57:23.161Z,8.68
2023-05-05T17:59:50.615Z,8.02
2023-05-05T18:02:18.207Z,9.60
2023-05-05T18:04:45.728Z,10.73
2023-05-05T18:07:14.833Z,7.78
2023-05-05T18:09:42.311Z,8.68
2023-05-05T18:12:09.239Z,10.27
2023-05-05T18:14:36.178Z,7.00
2023-05-05T18:17:03.349Z,9.13
2023-05-05T18:19:30.351Z,15.35
2023-05-05T18:21:59.890Z,15.27
2023-05-05T18:26:54.476Z,6.85
2023-05-05T18:29:22.285Z,8.10
2023-05-05T18:31:53.148Z,4.95
2023-05-05T18:34:20.885Z,6.47
2023-05-05T18:36:48.376Z,9.35
2023-05-05T18:39:15.295Z,9.40
2023-05-05T18:41:42.209Z,5.40
2023-05-05T18:44:09.159Z,12.95
2023-05-05T18:46:36.087Z,5.40
2023-05-05T18:49:03.903Z,9.23
2023-05-05T18:51:30.976Z,7.35
2023-05-05T18:53:58.046Z,6.75
2023-05-05T18:56:24.883Z,6.25
2023-05-05T18:58:51.760Z,6.20
2023-05-05T19:01:18.731Z,6.53
2023-05-05T19:03:48.912Z,6.78
2023-05-05T19:06:16.512Z,7.90
2023-05-05T19:08:44.383Z,8.30
2023-05-05T19:11:11.503Z,21.10
2023-05-05T19:13:39.748Z,16.87
2023-05-05T19:16:07.345Z,16.25
2023-05-05T19:18:34.468Z,17.75
2023-05-05T19:21:01.706Z,13.43
2023-05-05T19:23:28.552Z,17.02
2023-05-05T19:25:55.565Z,16.90
2023-05-05T19:28:22.434Z,19.48
2023-05-05T19:30:49.408Z,19.10
2023-05-05T19:33:16.619Z,14.73
2023-05-05T19:35:44.155Z,22.37
2023-05-05T19:38:11.145Z,15.80
2023-05-05T19:40:41.301Z,14.15
2023-05-05T19:43:08.305Z,13.65
2023-05-05T19:45:35.650Z,12.48
2023-05-05T19:48:03.011Z,13.68
2023-05-05T19:50:30.869Z,18.33
2023-05-05T19:52:58.232Z,13.98
2023-05-05T19:55:25.876Z,14.87
2023-05-05T19:57:52.773Z,13.93
2023-05-05T20:00:19.957Z,14.15
2023-05-05T20:02:48.757Z,14.18
2023-05-05T20:05:17.811Z,14.43
2023-05-05T20:07:47.011Z,16.52
2023-05-05T20:10:14.005Z,15.93
2023-05-05T20:12:49.205Z,17.35
2023-05-05T20:15:19.988Z,15.38
2023-05-05T20:17:48.033Z,16.25
2023-05-05T20:20:20.865Z,16.23
2023-05-05T20:22:48.648Z,13.82
2023-05-05T20:25:18.559Z,18.25
2023-05-05T20:27:48.188Z,16.98
2023-05-05T20:30:15.149Z,13.82
2023-05-05T20:32:42.147Z,12.25
2023-05-05T20:35:09.778Z,11.65
2023-05-05T20:37:36.574Z,15.52
2023-05-05T20:40:04.027Z,11.20
2023-05-05T20:42:30.917Z,13.15
2023-05-05T20:44:57.844Z,9.38
2023-05-05T20:47:24.975Z,12.05
2023-05-05T20:49:52.686Z,12.35
2023-05-05T20:52:20.171Z,11.10
2023-05-05T20:54:46.993Z,8.15
2023-05-05T20:57:13.955Z,9.23
2023-05-05T20:59:40.828Z,7.97
2023-05-05T21:02:08.328Z,10.48
2023-05-05T21:04:35.525Z,11.80
2023-05-05T21:07:03.054Z,8.85
2023-05-05T21:09:29.916Z,7.60
2023-05-05T21:11:56.822Z,9.57
2023-05-05T21:14:23.988Z,9.38
2023-05-05T21:16:50.902Z,8.77
2023-05-05T21:19:17.771Z,11.43
2023-05-05T21:21:44.590Z,9.38
2023-05-05T21:24:13.159Z,9.57
2023-05-05T21:26:44.376Z,8.23
2023-05-05T21:29:11.847Z,9.18
2023-05-05T21:31:38.752Z,8.23
2023-05-05T21:34:05.619Z,8.35
2023-05-05T21:36:34.088Z,8.65
2023-05-05T21:39:01.267Z,8.13
2023-05-05T21:41:28.165Z,9.70
2023-05-05T21:43:55.129Z,9.20
2023-05-05T21:46:22.089Z,9.52
2023-05-05T21:48:49.013Z,7.57
2023-05-05T21:51:15.996Z,9.98
2023-05-05T21:53:42.922Z,7.75
2023-05-05T21:56:09.899Z,10.27
2023-05-05T21:58:36.811Z,7.25
2023-05-05T22:01:03.800Z,8.02
2023-05-05T22:03:30.764Z,7.28
2023-05-05T22:05:57.641Z,7.37
2023-05-05T22:08:24.547Z,7.53
2023-05-05T22:10:51.651Z,5.95
2023-05-05T22:13:18.613Z,7.78
2023-05-05T22:15:47.480Z,11.27
2023-05-05T22:18:15.557Z,8.45
2023-05-05T22:20:42.512Z,10.05
2023-05-05T22:23:09.570Z,10.88
2023-05-05T22:25:36.484Z,6.97
2023-05-05T22:28:03.506Z,7.18
2023-05-05T22:30:30.417Z,7.15
2023-05-05T22:32:57.405Z,5.93
2023-05-05T22:35:24.555Z,8.05
2023-05-05T22:37:51.387Z,6.25
2023-05-05T22:40:18.236Z,6.45
2023-05-05T22:42:45.077Z,7.93
2023-05-05T22:45:12.168Z,5.03
2023-05-05T22:47:39.723Z,9.05
2023-05-05T22:50:07.953Z,5.93
2023-05-05T22:52:34.832Z,6.68
2023-05-05T22:55:01.910Z,8.32
2023-05-05T22:57:28.801Z,5.07
2023-05-05T22:59:55.874Z,6.20
2023-05-05T23:02:22.876Z,6.00
2023-05-05T23:04:50.011Z,8.10
2023-05-05T23:07:16.931Z,7.82
2023-05-05T23:09:43.736Z,7.85
2023-05-05T23:12:10.956Z,9.27
2023-05-05T23:14:38.450Z,6.50
2023-05-05T23:17:05.471Z,6.37
2023-05-05T23:19:32.801Z,10.35
2023-05-05T23:22:00.267Z,6.00
2023-05-05T23:24:28.387Z,7.70
2023-05-05T23:26:57.052Z,5.65
2023-05-05T23:29:23.876Z,15.50
2023-05-05T23:31:50.827Z,9.05
2023-05-05T23:34:17.603Z,6.28
2023-05-05T23:36:44.409Z,8.23
2023-05-05T23:39:11.610Z,8.07
2023-05-05T23:41:38.494Z,7.47
2023-05-05T23:44:05.414Z,6.18
2023-05-05T23:46:32.647Z,5.47
2023-05-05T23:48:59.560Z,6.90
2023-05-05T23:51:27.408Z,6.22
2023-05-05T23:53:57.388Z,6.80
2023-05-05T23:56:24.685Z,7.82
2023-05-05T23:58:52.692Z,9.10
